sensor_id;sensor_type;location;lat;lon;timestamp;temperature;humidity
4811;DHT22;2419;51.276;6.472;2024-03-07T00:00:07;6.10;99.90
4811;DHT22;2419;51.276;6.472;2024-03-07T00:02:42;6.10;99.90
4811;DHT22;2419;51.276;6.472;2024-03-07T00:05:10;6.00;99.90
4811;DHT22;2419;51.276;6.472;2024-03-07T00:07:40;6.00;99.90
4811;DHT22;2419;51.276;6.472;2024-03-07T00:10:10;6.10;99.90
4811;DHT22;2419;51.276;6.472;2024-03-07T00:12:39;6.20;99.90
4811;DHT22;2419;51.276;6.472;2024-03-07T00:15:09;6.20;99.90
4811;DHT22;2419;51.276;6.472;2024-03-07T00:17:38;6.20;99.90
4811;DHT22;2419;51.276;6.472;2024-03-07T00:20:07;6.20;99.90
4811;DHT22;2419;51.276;6.472;2024-03-07T00:22:37;6.20;99.90
4811;DHT22;2419;51.276;6.472;2024-03-07T00:25:06;6.20;99.90
4811;DHT22;2419;51.276;6.472;2024-03-07T00:27:37;6.20;99.90
4811;DHT22;2419;51.276;6.472;2024-03-07T00:30:07;6.20;99.90
4811;DHT22;2419;51.276;6.472;2024-03-07T00:32:36;6.10;99.90
4811;DHT22;2419;51.276;6.472;2024-03-07T00:35:07;6.10;99.90
4811;DHT22;2419;51.276;6.472;2024-03-07T00:37:36;6.10;99.90
4811;DHT22;2419;51.276;6.472;2024-03-07T00:40:06;6.10;99.90
4811;DHT22;2419;51.276;6.472;2024-03-07T00:42:34;6.00;99.90
4811;DHT22;2419;51.276;6.472;2024-03-07T00:45:04;6.00;99.90
4811;DHT22;2419;51.276;6.472;2024-03-07T00:47:33;6.00;99.90
4811;DHT22;2419;51.276;6.472;2024-03-07T00:50:01;6.00;99.90
4811;DHT22;2419;51.276;6.472;2024-03-07T00:52:29;6.00;99.90
4811;DHT22;2419;51.276;6.472;2024-03-07T00:54:59;6.00;99.90
4811;DHT22;2419;51.276;6.472;2024-03-07T00:57:27;5.80;99.90
4811;DHT22;2419;51.276;6.472;2024-03-07T00:59:56;5.80;99.90
4811;DHT22;2419;51.276;6.472;2024-03-07T01:02:25;5.70;99.90
4811;DHT22;2419;51.276;6.472;2024-03-07T01:04:53;5.60;99.90
4811;DHT22;2419;51.276;6.472;2024-03-07T01:07:22;5.70;99.90
4811;DHT22;2419;51.276;6.472;2024-03-07T01:09:50;5.60;99.90
4811;DHT22;2419;51.276;6.472;2024-03-07T01:12:18;5.60;99.90
4811;DHT22;2419;51.276;6.472;2024-03-07T01:14:49;5.50;99.90
4811;DHT22;2419;51.276;6.472;2024-03-07T01:17:18;5.50;99.90
4811;DHT22;2419;51.276;6.472;2024-03-07T01:19:47;5.50;99.90
4811;DHT22;2419;51.276;6.472;2024-03-07T01:22:15;5.50;99.90
4811;DHT22;2419;51.276;6.472;2024-03-07T01:24:43;5.40;99.90
4811;DHT22;2419;51.276;6.472;2024-03-07T01:27:11;5.30;99.90
4811;DHT22;2419;51.276;6.472;2024-03-07T01:29:39;5.40;99.90
4811;DHT22;2419;51.276;6.472;2024-03-07T01:32:08;5.40;99.90
4811;DHT22;2419;51.276;6.472;2024-03-07T01:34:36;5.30;99.90
4811;DHT22;2419;51.276;6.472;2024-03-07T01:37:06;5.30;99.90
4811;DHT22;2419;51.276;6.472;2024-03-07T01:39:35;5.20;99.90
4811;DHT22;2419;51.276;6.472;2024-03-07T01:42:03;5.20;99.90
4811;DHT22;2419;51.276;6.472;2024-03-07T01:44:31;5.20;99.90
4811;DHT22;2419;51.276;6.472;2024-03-07T01:46:59;5.20;99.90
4811;DHT22;2419;51.276;6.472;2024-03-07T01:49:29;5.10;99.90
4811;DHT22;2419;51.276;6.472;2024-03-07T01:51:58;5.10;99.90
4811;DHT22;2419;51.276;6.472;2024-03-07T01:54:28;5.00;99.90
4811;DHT22;2419;51.276;6.472;2024-03-07T01:56:57;4.90;99.90
4811;DHT22;2419;51.276;6.472;2024-03-07T01:59:25;5.00;99.90
4811;DHT22;2419;51.276;6.472;2024-03-07T02:01:56;5.00;99.90
4811;DHT22;2419;51.276;6.472;2024-03-07T02:04:24;4.90;99.90
4811;DHT22;2419;51.276;6.472;2024-03-07T02:06:53;5.00;99.90
4811;DHT22;2419;51.276;6.472;2024-03-07T02:09:21;4.90;99.90
4811;DHT22;2419;51.276;6.472;2024-03-07T02:11:51;4.90;99.90
4811;DHT22;2419;51.276;6.472;2024-03-07T02:14:19;4.90;99.90
4811;DHT22;2419;51.276;6.472;2024-03-07T02:16:47;4.90;99.90
4811;DHT22;2419;51.276;6.472;2024-03-07T02:19:15;4.90;99.90
4811;DHT22;2419;51.276;6.472;2024-03-07T02:21:46;4.80;99.90
4811;DHT22;2419;51.276;6.472;2024-03-07T02:24:14;4.70;99.90
4811;DHT22;2419;51.276;6.472;2024-03-07T02:26:42;4.70;99.90
4811;DHT22;2419;51.276;6.472;2024-03-07T02:29:10;4.70;99.90
4811;DHT22;2419;51.276;6.472;2024-03-07T02:31:39;4.70;99.90
4811;DHT22;2419;51.276;6.472;2024-03-07T02:34:08;4.70;99.90
4811;DHT22;2419;51.276;6.472;2024-03-07T02:36:36;4.70;99.90
4811;DHT22;2419;51.276;6.472;2024-03-07T02:39:06;4.70;99.90
4811;DHT22;2419;51.276;6.472;2024-03-07T02:41:34;4.70;99.90
4811;DHT22;2419;51.276;6.472;2024-03-07T02:44:02;4.60;99.90
4811;DHT22;2419;51.276;6.472;2024-03-07T02:46:31;4.60;99.90
4811;DHT22;2419;51.276;6.472;2024-03-07T02:48:59;4.60;99.90
4811;DHT22;2419;51.276;6.472;2024-03-07T02:51:27;4.60;99.90
4811;DHT22;2419;51.276;6.472;2024-03-07T02:53:57;4.50;99.90
4811;DHT22;2419;51.276;6.472;2024-03-07T02:56:27;4.60;99.90
4811;DHT22;2419;51.276;6.472;2024-03-07T02:58:55;4.50;99.90
4811;DHT22;2419;51.276;6.472;2024-03-07T03:01:24;4.60;99.90
4811;DHT22;2419;51.276;6.472;2024-03-07T03:03:52;4.60;99.90
4811;DHT22;2419;51.276;6.472;2024-03-07T03:06:20;4.60;99.90
4811;DHT22;2419;51.276;6.472;2024-03-07T03:08:49;4.60;99.90
4811;DHT22;2419;51.276;6.472;2024-03-07T03:11:17;4.60;99.90
4811;DHT22;2419;51.276;6.472;2024-03-07T03:13:46;4.60;99.90
4811;DHT22;2419;51.276;6.472;2024-03-07T03:16:15;4.60;99.90
4811;DHT22;2419;51.276;6.472;2024-03-07T03:18:45;4.50;99.90
4811;DHT22;2419;51.276;6.472;2024-03-07T03:21:15;4.40;99.90
4811;DHT22;2419;51.276;6.472;2024-03-07T03:23:43;4.40;99.90
4811;DHT22;2419;51.276;6.472;2024-03-07T03:26:11;4.30;99.90
4811;DHT22;2419;51.276;6.472;2024-03-07T03:28:40;4.30;99.90
4811;DHT22;2419;51.276;6.472;2024-03-07T03:31:10;4.30;99.90
4811;DHT22;2419;51.276;6.472;2024-03-07T03:33:40;4.40;99.90
4811;DHT22;2419;51.276;6.472;2024-03-07T03:36:08;4.50;99.90
4811;DHT22;2419;51.276;6.472;2024-03-07T03:38:37;4.40;99.90
4811;DHT22;2419;51.276;6.472;2024-03-07T03:41:05;4.30;99.90
4811;DHT22;2419;51.276;6.472;2024-03-07T03:43:33;4.20;99.90
4811;DHT22;2419;51.276;6.472;2024-03-07T03:46:01;4.20;99.90
4811;DHT22;2419;51.276;6.472;2024-03-07T03:48:31;4.20;99.90
4811;DHT22;2419;51.276;6.472;2024-03-07T03:51:00;4.20;99.90
4811;DHT22;2419;51.276;6.472;2024-03-07T03:53:28;4.20;99.90
4811;DHT22;2419;51.276;6.472;2024-03-07T03:55:56;4.20;99.90
4811;DHT22;2419;51.276;6.472;2024-03-07T03:58:25;4.20;99.90
4811;DHT22;2419;51.276;6.472;2024-03-07T04:00:54;4.10;99.90
4811;DHT22;2419;51.276;6.472;2024-03-07T04:03:22;4.10;99.90
4811;DHT22;2419;51.276;6.472;2024-03-07T04:05:52;4.20;99.90
4811;DHT22;2419;51.276;6.472;2024-03-07T04:08:22;4.20;99.90
4811;DHT22;2419;51.276;6.472;2024-03-07T04:10:50;4.10;99.90
4811;DHT22;2419;51.276;6.472;2024-03-07T04:13:18;4.10;99.90
4811;DHT22;2419;51.276;6.472;2024-03-07T04:15:49;4.10;99.90
4811;DHT22;2419;51.276;6.472;2024-03-07T04:18:17;4.00;99.90
4811;DHT22;2419;51.276;6.472;2024-03-07T04:20:45;4.00;99.90
4811;DHT22;2419;51.276;6.472;2024-03-07T04:23:14;4.10;99.90
4811;DHT22;2419;51.276;6.472;2024-03-07T04:25:42;4.00;99.90
4811;DHT22;2419;51.276;6.472;2024-03-07T04:28:10;4.00;99.90
4811;DHT22;2419;51.276;6.472;2024-03-07T04:30:38;4.00;99.90
4811;DHT22;2419;51.276;6.472;2024-03-07T04:33:07;4.00;99.90
4811;DHT22;2419;51.276;6.472;2024-03-07T04:35:35;4.00;99.90
4811;DHT22;2419;51.276;6.472;2024-03-07T04:38:03;3.90;99.90
4811;DHT22;2419;51.276;6.472;2024-03-07T04:40:37;3.80;99.90
4811;DHT22;2419;51.276;6.472;2024-03-07T04:43:06;3.90;99.90
4811;DHT22;2419;51.276;6.472;2024-03-07T04:45:34;3.90;99.90
4811;DHT22;2419;51.276;6.472;2024-03-07T04:48:02;3.90;99.90
4811;DHT22;2419;51.276;6.472;2024-03-07T04:50:32;3.90;99.90
4811;DHT22;2419;51.276;6.472;2024-03-07T04:53:00;3.90;99.90
4811;DHT22;2419;51.276;6.472;2024-03-07T04:55:28;3.90;99.90
4811;DHT22;2419;51.276;6.472;2024-03-07T04:57:58;3.90;99.90
4811;DHT22;2419;51.276;6.472;2024-03-07T05:00:26;3.90;99.90
4811;DHT22;2419;51.276;6.472;2024-03-07T05:02:56;4.00;99.90
4811;DHT22;2419;51.276;6.472;2024-03-07T05:05:24;4.20;99.90
4811;DHT22;2419;51.276;6.472;2024-03-07T05:07:53;4.10;99.90
4811;DHT22;2419;51.276;6.472;2024-03-07T05:10:23;4.20;99.90
4811;DHT22;2419;51.276;6.472;2024-03-07T05:12:51;4.10;99.90
4811;DHT22;2419;51.276;6.472;2024-03-07T05:15:21;4.10;99.90
4811;DHT22;2419;51.276;6.472;2024-03-07T05:17:52;4.10;99.90
4811;DHT22;2419;51.276;6.472;2024-03-07T05:20:23;4.10;99.90
4811;DHT22;2419;51.276;6.472;2024-03-07T05:22:51;4.10;99.90
4811;DHT22;2419;51.276;6.472;2024-03-07T05:25:19;4.10;99.90
4811;DHT22;2419;51.276;6.472;2024-03-07T05:27:48;4.00;99.90
4811;DHT22;2419;51.276;6.472;2024-03-07T05:30:17;4.00;99.90
4811;DHT22;2419;51.276;6.472;2024-03-07T05:32:47;4.00;99.90
4811;DHT22;2419;51.276;6.472;2024-03-07T05:35:16;4.00;99.90
4811;DHT22;2419;51.276;6.472;2024-03-07T05:37:48;3.90;99.90
4811;DHT22;2419;51.276;6.472;2024-03-07T05:40:18;3.90;99.90
4811;DHT22;2419;51.276;6.472;2024-03-07T05:42:46;3.80;99.90
4811;DHT22;2419;51.276;6.472;2024-03-07T05:45:14;3.70;99.90
4811;DHT22;2419;51.276;6.472;2024-03-07T05:47:44;3.60;99.90
4811;DHT22;2419;51.276;6.472;2024-03-07T05:50:17;3.70;99.90
4811;DHT22;2419;51.276;6.472;2024-03-07T05:52:46;3.60;99.90
4811;DHT22;2419;51.276;6.472;2024-03-07T05:55:15;3.70;99.90
4811;DHT22;2419;51.276;6.472;2024-03-07T05:57:46;3.80;99.90
4811;DHT22;2419;51.276;6.472;2024-03-07T06:00:15;3.70;99.90
4811;DHT22;2419;51.276;6.472;2024-03-07T06:02:46;3.70;99.90
4811;DHT22;2419;51.276;6.472;2024-03-07T06:05:14;3.70;99.90
4811;DHT22;2419;51.276;6.472;2024-03-07T06:07:44;3.70;99.90
4811;DHT22;2419;51.276;6.472;2024-03-07T06:10:13;3.60;99.90
4811;DHT22;2419;51.276;6.472;2024-03-07T06:12:43;3.70;99.90
4811;DHT22;2419;51.276;6.472;2024-03-07T06:15:31;3.60;99.90
4811;DHT22;2419;51.276;6.472;2024-03-07T06:17:59;3.60;99.90
4811;DHT22;2419;51.276;6.472;2024-03-07T06:20:27;3.70;99.90
4811;DHT22;2419;51.276;6.472;2024-03-07T06:22:57;3.70;99.90
4811;DHT22;2419;51.276;6.472;2024-03-07T06:25:26;3.70;99.90
4811;DHT22;2419;51.276;6.472;2024-03-07T06:28:04;3.70;99.90
4811;DHT22;2419;51.276;6.472;2024-03-07T06:30:38;3.80;99.90
4811;DHT22;2419;51.276;6.472;2024-03-07T06:33:07;3.80;99.90
4811;DHT22;2419;51.276;6.472;2024-03-07T06:35:35;3.80;99.90
4811;DHT22;2419;51.276;6.472;2024-03-07T06:38:06;4.00;99.90
4811;DHT22;2419;51.276;6.472;2024-03-07T06:40:35;4.10;99.90
4811;DHT22;2419;51.276;6.472;2024-03-07T06:43:03;4.20;99.90
4811;DHT22;2419;51.276;6.472;2024-03-07T06:45:33;4.20;99.90
4811;DHT22;2419;51.276;6.472;2024-03-07T06:48:03;4.30;99.90
4811;DHT22;2419;51.276;6.472;2024-03-07T06:50:31;4.70;99.90
4811;DHT22;2419;51.276;6.472;2024-03-07T06:53:06;5.10;99.90
4811;DHT22;2419;51.276;6.472;2024-03-07T06:55:35;5.30;99.90
4811;DHT22;2419;51.276;6.472;2024-03-07T06:58:04;5.60;99.90
4811;DHT22;2419;51.276;6.472;2024-03-07T07:00:33;5.90;99.90
4811;DHT22;2419;51.276;6.472;2024-03-07T07:03:04;6.00;99.90
4811;DHT22;2419;51.276;6.472;2024-03-07T07:05:33;6.20;99.90
4811;DHT22;2419;51.276;6.472;2024-03-07T07:08:02;6.00;99.90
4811;DHT22;2419;51.276;6.472;2024-03-07T07:10:32;5.90;99.90
4811;DHT22;2419;51.276;6.472;2024-03-07T07:13:01;5.80;99.90
4811;DHT22;2419;51.276;6.472;2024-03-07T07:15:31;5.90;99.90
4811;DHT22;2419;51.276;6.472;2024-03-07T07:17:59;5.80;99.90
4811;DHT22;2419;51.276;6.472;2024-03-07T07:20:29;6.10;99.90
4811;DHT22;2419;51.276;6.472;2024-03-07T07:22:57;6.50;99.90
4811;DHT22;2419;51.276;6.472;2024-03-07T07:25:27;7.00;99.90
4811;DHT22;2419;51.276;6.472;2024-03-07T07:27:57;7.30;99.90
4811;DHT22;2419;51.276;6.472;2024-03-07T07:30:25;7.80;99.90
4811;DHT22;2419;51.276;6.472;2024-03-07T07:32:54;7.90;99.90
4811;DHT22;2419;51.276;6.472;2024-03-07T07:35:22;8.20;99.90
4811;DHT22;2419;51.276;6.472;2024-03-07T07:37:52;8.50;99.90
4811;DHT22;2419;51.276;6.472;2024-03-07T07:40:23;8.90;99.90
4811;DHT22;2419;51.276;6.472;2024-03-07T07:42:54;8.50;99.90
4811;DHT22;2419;51.276;6.472;2024-03-07T07:45:24;9.00;99.90
4811;DHT22;2419;51.276;6.472;2024-03-07T07:47:53;8.70;99.90
4811;DHT22;2419;51.276;6.472;2024-03-07T07:50:23;8.80;99.90
4811;DHT22;2419;51.276;6.472;2024-03-07T07:52:53;8.90;99.90
4811;DHT22;2419;51.276;6.472;2024-03-07T07:55:24;8.90;99.90
4811;DHT22;2419;51.276;6.472;2024-03-07T07:57:53;8.70;99.90
4811;DHT22;2419;51.276;6.472;2024-03-07T08:00:24;8.60;99.90
4811;DHT22;2419;51.276;6.472;2024-03-07T08:02:54;8.20;99.90
4811;DHT22;2419;51.276;6.472;2024-03-07T08:05:23;8.10;99.90
4811;DHT22;2419;51.276;6.472;2024-03-07T08:07:52;8.10;99.90
4811;DHT22;2419;51.276;6.472;2024-03-07T08:10:23;8.40;99.90
4811;DHT22;2419;51.276;6.472;2024-03-07T08:12:51;8.60;99.90
4811;DHT22;2419;51.276;6.472;2024-03-07T08:15:19;9.10;99.90
4811;DHT22;2419;51.276;6.472;2024-03-07T08:17:49;8.60;99.90
4811;DHT22;2419;51.276;6.472;2024-03-07T08:20:20;7.60;99.90
4811;DHT22;2419;51.276;6.472;2024-03-07T08:22:49;7.50;99.90
4811;DHT22;2419;51.276;6.472;2024-03-07T08:25:20;7.10;99.90
4811;DHT22;2419;51.276;6.472;2024-03-07T08:27:51;7.10;99.90
4811;DHT22;2419;51.276;6.472;2024-03-07T08:30:20;7.20;99.90
4811;DHT22;2419;51.276;6.472;2024-03-07T08:32:50;7.70;99.90
4811;DHT22;2419;51.276;6.472;2024-03-07T08:35:20;8.30;99.90
4811;DHT22;2419;51.276;6.472;2024-03-07T08:37:49;8.40;99.90
4811;DHT22;2419;51.276;6.472;2024-03-07T08:40:31;8.60;99.90
4811;DHT22;2419;51.276;6.472;2024-03-07T08:43:01;9.30;99.90
4811;DHT22;2419;51.276;6.472;2024-03-07T08:45:30;9.70;99.90
4811;DHT22;2419;51.276;6.472;2024-03-07T08:48:02;10.10;99.90
4811;DHT22;2419;51.276;6.472;2024-03-07T08:50:32;10.70;99.90
4811;DHT22;2419;51.276;6.472;2024-03-07T08:53:01;10.80;99.90
4811;DHT22;2419;51.276;6.472;2024-03-07T08:55:32;11.20;99.90
4811;DHT22;2419;51.276;6.472;2024-03-07T08:58:03;11.00;99.90
4811;DHT22;2419;51.276;6.472;2024-03-07T09:00:33;10.60;99.90
4811;DHT22;2419;51.276;6.472;2024-03-07T09:03:05;10.70;99.90
4811;DHT22;2419;51.276;6.472;2024-03-07T09:05:38;10.70;99.90
4811;DHT22;2419;51.276;6.472;2024-03-07T09:08:07;10.60;99.90
4811;DHT22;2419;51.276;6.472;2024-03-07T09:10:36;10.10;99.90
4811;DHT22;2419;51.276;6.472;2024-03-07T09:13:10;10.10;99.90
4811;DHT22;2419;51.276;6.472;2024-03-07T09:15:38;11.30;99.90
4811;DHT22;2419;51.276;6.472;2024-03-07T09:18:07;11.40;99.90
4811;DHT22;2419;51.276;6.472;2024-03-07T09:20:35;10.80;99.90
4811;DHT22;2419;51.276;6.472;2024-03-07T09:23:04;10.30;99.90
4811;DHT22;2419;51.276;6.472;2024-03-07T09:25:32;10.20;99.90
4811;DHT22;2419;51.276;6.472;2024-03-07T09:28:03;10.20;99.90
4811;DHT22;2419;51.276;6.472;2024-03-07T09:30:31;11.00;99.90
4811;DHT22;2419;51.276;6.472;2024-03-07T09:32:59;11.60;99.90
4811;DHT22;2419;51.276;6.472;2024-03-07T09:35:28;12.10;99.90
4811;DHT22;2419;51.276;6.472;2024-03-07T09:37:56;11.70;98.20
4811;DHT22;2419;51.276;6.472;2024-03-07T09:40:24;11.40;97.70
4811;DHT22;2419;51.276;6.472;2024-03-07T09:42:55;11.70;97.60
4811;DHT22;2419;51.276;6.472;2024-03-07T09:45:29;12.50;96.80
4811;DHT22;2419;51.276;6.472;2024-03-07T09:47:59;12.60;94.20
4811;DHT22;2419;51.276;6.472;2024-03-07T09:50:29;12.20;94.80
4811;DHT22;2419;51.276;6.472;2024-03-07T09:52:58;11.80;93.50
4811;DHT22;2419;51.276;6.472;2024-03-07T09:55:27;12.00;94.00
4811;DHT22;2419;51.276;6.472;2024-03-07T09:57:58;12.60;94.30
4811;DHT22;2419;51.276;6.472;2024-03-07T10:00:28;12.60;93.50
4811;DHT22;2419;51.276;6.472;2024-03-07T10:02:59;12.30;93.30
4811;DHT22;2419;51.276;6.472;2024-03-07T10:05:30;12.80;93.00
4811;DHT22;2419;51.276;6.472;2024-03-07T10:08:00;13.40;92.30
4811;DHT22;2419;51.276;6.472;2024-03-07T10:10:29;12.80;91.20
4811;DHT22;2419;51.276;6.472;2024-03-07T10:12:58;12.30;91.20
4811;DHT22;2419;51.276;6.472;2024-03-07T10:15:29;11.40;92.00
4811;DHT22;2419;51.276;6.472;2024-03-07T10:17:58;10.50;94.80
4811;DHT22;2419;51.276;6.472;2024-03-07T10:20:28;10.00;95.80
4811;DHT22;2419;51.276;6.472;2024-03-07T10:22:57;9.90;97.80
4811;DHT22;2419;51.276;6.472;2024-03-07T10:25:27;9.70;97.30
4811;DHT22;2419;51.276;6.472;2024-03-07T10:27:56;9.60;97.50
4811;DHT22;2419;51.276;6.472;2024-03-07T10:30:26;9.50;97.70
4811;DHT22;2419;51.276;6.472;2024-03-07T10:32:57;9.30;98.30
4811;DHT22;2419;51.276;6.472;2024-03-07T10:35:28;9.10;99.50
4811;DHT22;2419;51.276;6.472;2024-03-07T10:37:58;9.10;99.90
4811;DHT22;2419;51.276;6.472;2024-03-07T10:40:28;9.00;99.90
4811;DHT22;2419;51.276;6.472;2024-03-07T10:42:58;9.00;99.90
4811;DHT22;2419;51.276;6.472;2024-03-07T10:45:30;8.80;99.90
4811;DHT22;2419;51.276;6.472;2024-03-07T10:48:05;8.90;99.90
4811;DHT22;2419;51.276;6.472;2024-03-07T10:50:43;8.90;99.90
4811;DHT22;2419;51.276;6.472;2024-03-07T10:53:19;8.90;99.90
4811;DHT22;2419;51.276;6.472;2024-03-07T10:56:02;8.80;99.90
4811;DHT22;2419;51.276;6.472;2024-03-07T10:58:41;8.70;99.90
4811;DHT22;2419;51.276;6.472;2024-03-07T11:01:11;8.80;99.90
4811;DHT22;2419;51.276;6.472;2024-03-07T11:03:42;8.80;99.90
4811;DHT22;2419;51.276;6.472;2024-03-07T11:06:11;9.00;99.90
4811;DHT22;2419;51.276;6.472;2024-03-07T11:08:42;10.00;99.90
4811;DHT22;2419;51.276;6.472;2024-03-07T11:11:11;10.50;99.90
4811;DHT22;2419;51.276;6.472;2024-03-07T11:13:39;11.30;99.80
4811;DHT22;2419;51.276;6.472;2024-03-07T11:16:09;11.60;98.40
4811;DHT22;2419;51.276;6.472;2024-03-07T11:18:37;11.70;97.80
4811;DHT22;2419;51.276;6.472;2024-03-07T11:21:40;12.50;97.00
4811;DHT22;2419;51.276;6.472;2024-03-07T11:24:08;13.20;94.70
4811;DHT22;2419;51.276;6.472;2024-03-07T11:26:36;12.80;94.80
4811;DHT22;2419;51.276;6.472;2024-03-07T11:32:03;11.80;95.20
4811;DHT22;2419;51.276;6.472;2024-03-07T11:34:31;11.30;97.20
4811;DHT22;2419;51.276;6.472;2024-03-07T11:37:00;11.40;96.60
4811;DHT22;2419;51.276;6.472;2024-03-07T11:39:39;11.10;97.20
4811;DHT22;2419;51.276;6.472;2024-03-07T11:42:19;11.00;98.40
4811;DHT22;2419;51.276;6.472;2024-03-07T11:44:49;11.00;98.50
4811;DHT22;2419;51.276;6.472;2024-03-07T11:47:18;10.90;98.80
4811;DHT22;2419;51.276;6.472;2024-03-07T11:49:46;11.10;98.40
4811;DHT22;2419;51.276;6.472;2024-03-07T11:52:17;11.00;98.20
4811;DHT22;2419;51.276;6.472;2024-03-07T11:54:45;12.00;96.90
4811;DHT22;2419;51.276;6.472;2024-03-07T11:57:16;11.90;96.50
4811;DHT22;2419;51.276;6.472;2024-03-07T11:59:47;11.70;96.90
4811;DHT22;2419;51.276;6.472;2024-03-07T12:02:19;11.10;97.00
4811;DHT22;2419;51.276;6.472;2024-03-07T12:04:50;11.80;96.50
4811;DHT22;2419;51.276;6.472;2024-03-07T12:07:19;12.90;96.30
4811;DHT22;2419;51.276;6.472;2024-03-07T12:09:49;13.20;94.80
4811;DHT22;2419;51.276;6.472;2024-03-07T12:12:21;13.60;94.50
4811;DHT22;2419;51.276;6.472;2024-03-07T12:14:50;13.90;92.90
4811;DHT22;2419;51.276;6.472;2024-03-07T12:17:20;13.90;91.40
4811;DHT22;2419;51.276;6.472;2024-03-07T12:19:50;14.40;90.60
4811;DHT22;2419;51.276;6.472;2024-03-07T12:22:20;14.70;90.00
4811;DHT22;2419;51.276;6.472;2024-03-07T12:25:00;15.10;86.60
4811;DHT22;2419;51.276;6.472;2024-03-07T12:27:29;14.90;87.70
4811;DHT22;2419;51.276;6.472;2024-03-07T12:29:59;13.90;88.80
4811;DHT22;2419;51.276;6.472;2024-03-07T12:32:29;13.30;90.80
4811;DHT22;2419;51.276;6.472;2024-03-07T12:34:58;13.00;91.90
4811;DHT22;2419;51.276;6.472;2024-03-07T12:37:27;12.60;91.30
4811;DHT22;2419;51.276;6.472;2024-03-07T12:39:56;12.00;92.70
4811;DHT22;2419;51.276;6.472;2024-03-07T12:42:28;11.70;94.90
4811;DHT22;2419;51.276;6.472;2024-03-07T12:44:58;11.40;95.20
4811;DHT22;2419;51.276;6.472;2024-03-07T12:47:27;11.30;95.60
4811;DHT22;2419;51.276;6.472;2024-03-07T12:49:55;11.30;95.30
4811;DHT22;2419;51.276;6.472;2024-03-07T12:52:25;11.10;96.90
4811;DHT22;2419;51.276;6.472;2024-03-07T12:54:55;11.10;97.50
4811;DHT22;2419;51.276;6.472;2024-03-07T12:57:23;11.10;97.60
4811;DHT22;2419;51.276;6.472;2024-03-07T12:59:51;11.00;97.60
4811;DHT22;2419;51.276;6.472;2024-03-07T13:02:19;10.80;98.20
4811;DHT22;2419;51.276;6.472;2024-03-07T13:04:53;10.70;98.60
4811;DHT22;2419;51.276;6.472;2024-03-07T13:07:21;10.40;98.80
4811;DHT22;2419;51.276;6.472;2024-03-07T13:09:49;10.30;99.30
4811;DHT22;2419;51.276;6.472;2024-03-07T13:12:19;10.40;99.90
4811;DHT22;2419;51.276;6.472;2024-03-07T13:14:47;10.50;99.90
4811;DHT22;2419;51.276;6.472;2024-03-07T13:17:15;10.40;99.90
4811;DHT22;2419;51.276;6.472;2024-03-07T13:19:44;10.40;99.90
4811;DHT22;2419;51.276;6.472;2024-03-07T13:22:16;10.40;99.90
4811;DHT22;2419;51.276;6.472;2024-03-07T13:24:44;10.20;99.90
4811;DHT22;2419;51.276;6.472;2024-03-07T13:27:13;10.10;99.90
4811;DHT22;2419;51.276;6.472;2024-03-07T13:29:47;10.10;99.90
4811;DHT22;2419;51.276;6.472;2024-03-07T13:32:16;10.20;99.90
4811;DHT22;2419;51.276;6.472;2024-03-07T13:34:44;10.30;99.90
4811;DHT22;2419;51.276;6.472;2024-03-07T13:37:14;10.40;99.90
4811;DHT22;2419;51.276;6.472;2024-03-07T13:39:45;10.30;99.90
4811;DHT22;2419;51.276;6.472;2024-03-07T13:42:14;10.20;99.90
4811;DHT22;2419;51.276;6.472;2024-03-07T13:44:42;10.10;99.90
4811;DHT22;2419;51.276;6.472;2024-03-07T13:47:12;10.00;99.90
4811;DHT22;2419;51.276;6.472;2024-03-07T13:49:42;9.90;99.90
4811;DHT22;2419;51.276;6.472;2024-03-07T13:52:11;9.90;99.90
4811;DHT22;2419;51.276;6.472;2024-03-07T13:54:45;9.70;99.90
4811;DHT22;2419;51.276;6.472;2024-03-07T13:57:21;9.60;99.90
4811;DHT22;2419;51.276;6.472;2024-03-07T14:00:05;9.60;99.90
4811;DHT22;2419;51.276;6.472;2024-03-07T14:03:12;9.60;99.90
4811;DHT22;2419;51.276;6.472;2024-03-07T14:06:01;9.70;99.90
4811;DHT22;2419;51.276;6.472;2024-03-07T14:08:52;9.70;99.90
4811;DHT22;2419;51.276;6.472;2024-03-07T14:18:29;9.70;99.90
4811;DHT22;2419;51.276;6.472;2024-03-07T14:21:52;9.70;99.90
4811;DHT22;2419;51.276;6.472;2024-03-07T14:24:51;9.70;99.90
4811;DHT22;2419;51.276;6.472;2024-03-07T14:27:27;9.70;99.90
4811;DHT22;2419;51.276;6.472;2024-03-07T14:30:16;9.70;99.90
4811;DHT22;2419;51.276;6.472;2024-03-07T14:32:49;9.70;99.90
4811;DHT22;2419;51.276;6.472;2024-03-07T14:35:31;9.60;99.90
4811;DHT22;2419;51.276;6.472;2024-03-07T14:38:23;9.60;99.90
4811;DHT22;2419;51.276;6.472;2024-03-07T14:40:52;9.70;99.90
4811;DHT22;2419;51.276;6.472;2024-03-07T14:43:21;9.80;99.90
4811;DHT22;2419;51.276;6.472;2024-03-07T14:45:51;9.80;99.90
4811;DHT22;2419;51.276;6.472;2024-03-07T14:48:22;9.80;99.90
4811;DHT22;2419;51.276;6.472;2024-03-07T14:50:52;9.70;99.90
4811;DHT22;2419;51.276;6.472;2024-03-07T14:53:20;9.80;99.90
4811;DHT22;2419;51.276;6.472;2024-03-07T14:55:48;9.80;99.90
4811;DHT22;2419;51.276;6.472;2024-03-07T14:58:16;9.80;99.90
4811;DHT22;2419;51.276;6.472;2024-03-07T15:00:44;9.70;99.90
4811;DHT22;2419;51.276;6.472;2024-03-07T15:03:24;9.60;99.90
4811;DHT22;2419;51.276;6.472;2024-03-07T15:05:57;9.60;99.90
4811;DHT22;2419;51.276;6.472;2024-03-07T15:08:26;9.50;99.90
4811;DHT22;2419;51.276;6.472;2024-03-07T15:10:59;9.50;99.90
4811;DHT22;2419;51.276;6.472;2024-03-07T15:13:35;9.60;99.90
4811;DHT22;2419;51.276;6.472;2024-03-07T15:16:04;9.60;99.90
4811;DHT22;2419;51.276;6.472;2024-03-07T15:18:33;9.60;99.90
4811;DHT22;2419;51.276;6.472;2024-03-07T15:21:04;9.70;99.90
4811;DHT22;2419;51.276;6.472;2024-03-07T15:23:36;9.70;99.90
4811;DHT22;2419;51.276;6.472;2024-03-07T15:26:04;9.70;99.90
4811;DHT22;2419;51.276;6.472;2024-03-07T15:28:34;9.70;99.90
4811;DHT22;2419;51.276;6.472;2024-03-07T15:31:02;9.70;99.90
4811;DHT22;2419;51.276;6.472;2024-03-07T15:33:32;9.70;99.90
4811;DHT22;2419;51.276;6.472;2024-03-07T15:36:02;9.70;99.90
4811;DHT22;2419;51.276;6.472;2024-03-07T15:38:32;9.60;99.90
4811;DHT22;2419;51.276;6.472;2024-03-07T15:41:03;9.60;99.90
4811;DHT22;2419;51.276;6.472;2024-03-07T15:43:34;9.50;99.90
4811;DHT22;2419;51.276;6.472;2024-03-07T15:46:02;9.50;99.90
4811;DHT22;2419;51.276;6.472;2024-03-07T15:48:30;9.40;99.90
4811;DHT22;2419;51.276;6.472;2024-03-07T15:51:00;9.40;99.90
4811;DHT22;2419;51.276;6.472;2024-03-07T15:53:29;9.40;99.90
4811;DHT22;2419;51.276;6.472;2024-03-07T15:56:02;9.30;99.90
4811;DHT22;2419;51.276;6.472;2024-03-07T15:58:33;9.30;99.90
4811;DHT22;2419;51.276;6.472;2024-03-07T16:01:01;9.20;99.90
4811;DHT22;2419;51.276;6.472;2024-03-07T16:03:30;9.20;99.90
4811;DHT22;2419;51.276;6.472;2024-03-07T16:05:58;9.20;99.90
4811;DHT22;2419;51.276;6.472;2024-03-07T16:08:26;9.20;99.90
4811;DHT22;2419;51.276;6.472;2024-03-07T16:10:55;9.20;99.90
4811;DHT22;2419;51.276;6.472;2024-03-07T16:13:23;9.10;99.90
4811;DHT22;2419;51.276;6.472;2024-03-07T16:15:51;9.10;99.90
4811;DHT22;2419;51.276;6.472;2024-03-07T16:18:20;9.10;99.90
4811;DHT22;2419;51.276;6.472;2024-03-07T16:20:51;9.10;99.90
4811;DHT22;2419;51.276;6.472;2024-03-07T16:23:19;9.20;99.90
4811;DHT22;2419;51.276;6.472;2024-03-07T16:25:47;9.20;99.90
4811;DHT22;2419;51.276;6.472;2024-03-07T16:28:16;9.10;99.90
4811;DHT22;2419;51.276;6.472;2024-03-07T16:30:48;9.00;99.90
4811;DHT22;2419;51.276;6.472;2024-03-07T16:33:16;8.90;99.90
4811;DHT22;2419;51.276;6.472;2024-03-07T16:35:45;8.90;99.90
4811;DHT22;2419;51.276;6.472;2024-03-07T16:38:13;8.80;99.90
4811;DHT22;2419;51.276;6.472;2024-03-07T16:40:43;8.70;99.90
4811;DHT22;2419;51.276;6.472;2024-03-07T16:43:13;8.70;99.90